createdAt,value
2018-08-09T00:00:25.596Z,20.23
2018-08-09T00:01:25.644Z,20.20
2018-08-09T00:02:17.529Z,20.14
2018-08-09T00:03:17.532Z,20.20
2018-08-09T00:04:17.495Z,20.14
2018-08-09T00:05:17.527Z,20.17
2018-08-09T00:06:17.475Z,20.14
2018-08-09T00:07:17.476Z,20.16
2018-08-09T00:08:17.448Z,20.18
2018-08-09T00:09:17.428Z,20.13
2018-08-09T00:10:17.435Z,20.13
2018-08-09T00:11:17.409Z,20.16
2018-08-09T00:12:17.393Z,20.13
2018-08-09T00:13:17.387Z,20.11
2018-08-09T00:14:17.374Z,20.10
2018-08-09T00:15:38.376Z,20.14
2018-08-09T00:16:17.365Z,20.23
2018-08-09T00:17:17.335Z,20.21
2018-08-09T00:18:17.323Z,20.17
2018-08-09T00:19:17.310Z,20.16
2018-08-09T00:20:17.299Z,20.11
2018-08-09T00:21:17.307Z,20.11
2018-08-09T00:22:17.273Z,20.11
2018-08-09T00:23:17.264Z,20.14
2018-08-09T00:24:17.267Z,20.11
2018-08-09T00:25:17.245Z,20.16
2018-08-09T00:26:17.240Z,20.10
2018-08-09T00:27:17.214Z,20.06
2018-08-09T00:28:17.214Z,20.03
2018-08-09T00:29:17.197Z,20.01
2018-08-09T00:30:17.181Z,20.02
2018-08-09T00:31:17.182Z,20.03
2018-08-09T00:32:17.154Z,20.01
2018-08-09T00:33:17.150Z,20.05
2018-08-09T00:34:17.130Z,19.94
2018-08-09T00:35:17.133Z,19.94
2018-08-09T00:36:17.121Z,19.95
2018-08-09T00:37:17.118Z,19.91
2018-08-09T00:38:17.104Z,19.87
2018-08-09T00:39:17.080Z,19.83
2018-08-09T00:40:17.057Z,19.84
2018-08-09T00:41:17.052Z,19.81
2018-08-09T00:42:17.063Z,19.74
2018-08-09T00:43:17.028Z,19.74
2018-08-09T00:44:17.040Z,19.74
2018-08-09T00:45:17.001Z,19.69
2018-08-09T00:46:17.007Z,19.68
2018-08-09T00:47:16.987Z,19.68
2018-08-09T00:48:16.966Z,19.58
2018-08-09T00:49:16.976Z,19.50
2018-08-09T00:50:16.943Z,19.40
2018-08-09T00:51:16.925Z,19.43
2018-08-09T00:52:16.919Z,19.40
2018-08-09T00:53:16.906Z,19.40
2018-08-09T00:54:16.914Z,19.43
2018-08-09T00:55:16.880Z,19.44
2018-08-09T00:56:16.868Z,19.44
2018-08-09T00:57:16.856Z,19.32
2018-08-09T00:58:16.851Z,19.22
2018-08-09T00:59:16.852Z,19.26
2018-08-09T01:00:16.821Z,19.32
2018-08-09T01:01:16.810Z,19.29
2018-08-09T01:02:16.799Z,19.31
2018-08-09T01:03:16.784Z,19.32
2018-08-09T01:04:16.786Z,19.33
2018-08-09T01:05:16.779Z,19.21
2018-08-09T01:06:16.750Z,19.14
2018-08-09T01:07:16.730Z,19.28
2018-08-09T01:08:16.719Z,19.25
2018-08-09T01:09:16.725Z,19.23
2018-08-09T01:10:37.711Z,19.25
2018-08-09T01:11:16.703Z,19.31
2018-08-09T01:12:16.675Z,19.21
2018-08-09T01:13:16.662Z,19.31
2018-08-09T01:14:16.648Z,19.25
2018-08-09T01:15:16.672Z,19.19
2018-08-09T01:16:16.630Z,19.13
2018-08-09T01:17:16.612Z,19.22
2018-08-09T01:18:16.617Z,19.26
2018-08-09T01:19:16.607Z,19.21
2018-08-09T01:20:16.572Z,19.25
2018-08-09T01:21:16.564Z,19.21
2018-08-09T01:22:16.546Z,19.23
2018-08-09T01:23:16.555Z,19.22
2018-08-09T01:24:16.523Z,19.22
2018-08-09T01:25:16.509Z,19.08
2018-08-09T01:26:16.501Z,19.08
2018-08-09T01:27:16.488Z,19.16
2018-08-09T01:28:16.506Z,19.22
2018-08-09T01:29:16.467Z,19.19
2018-08-09T01:30:16.472Z,19.19
2018-08-09T01:31:16.443Z,19.22
2018-08-09T01:32:23.956Z,19.08
2018-08-09T01:33:23.946Z,19.18
2018-08-09T01:34:16.411Z,19.16
2018-08-09T01:35:16.387Z,19.13
2018-08-09T01:36:24.750Z,19.22
2018-08-09T01:37:16.362Z,19.10
2018-08-09T01:38:16.359Z,19.07
2018-08-09T01:39:16.349Z,18.98
2018-08-09T01:40:16.321Z,18.99
2018-08-09T01:41:16.334Z,19.02
2018-08-09T01:42:16.300Z,18.98
2018-08-09T01:43:16.284Z,18.98
2018-08-09T01:44:16.282Z,18.90
2018-08-09T01:45:16.261Z,18.88
2018-08-09T01:46:16.248Z,18.92
2018-08-09T01:47:16.232Z,18.85
2018-08-09T01:48:16.220Z,18.82
2018-08-09T01:49:16.249Z,18.84
2018-08-09T01:50:16.198Z,18.84
2018-08-09T01:51:16.195Z,18.85
2018-08-09T01:52:16.173Z,18.80
2018-08-09T01:53:16.159Z,18.85
2018-08-09T01:54:16.150Z,18.80
2018-08-09T01:55:16.149Z,18.81
2018-08-09T01:56:16.122Z,18.81
2018-08-09T01:57:16.112Z,18.87
2018-08-09T01:58:16.095Z,18.88
2018-08-09T01:59:16.107Z,18.70
2018-08-09T02:00:16.089Z,18.70
2018-08-09T02:01:16.058Z,18.70
2018-08-09T02:02:16.043Z,18.67
2018-08-09T02:03:16.042Z,18.63
2018-08-09T02:04:16.020Z,18.67
2018-08-09T02:05:16.023Z,18.66
2018-08-09T02:06:16.063Z,18.67
2018-08-09T02:07:15.987Z,18.66
2018-08-09T02:08:15.971Z,18.55
2018-08-09T02:09:15.962Z,18.63
2018-08-09T02:10:15.973Z,18.52
2018-08-09T02:11:15.931Z,18.52
2018-08-09T02:12:15.920Z,18.54
2018-08-09T02:13:15.912Z,18.60
2018-08-09T02:14:15.898Z,18.62
2018-08-09T02:15:15.885Z,18.58
2018-08-09T02:16:15.886Z,18.65
2018-08-09T02:17:15.853Z,18.55
2018-08-09T02:18:15.848Z,18.60
2018-08-09T02:19:15.836Z,18.55
2018-08-09T02:20:15.825Z,18.48
2018-08-09T02:21:15.816Z,18.52
2018-08-09T02:22:15.863Z,18.51
2018-08-09T02:23:15.780Z,18.48
2018-08-09T02:24:15.770Z,18.54
2018-08-09T02:25:15.758Z,18.54
2018-08-09T02:26:15.745Z,18.48
2018-08-09T02:27:15.750Z,18.54
2018-08-09T02:28:15.730Z,18.51
2018-08-09T02:29:15.702Z,18.50
2018-08-09T02:30:15.706Z,18.50
2018-08-09T02:31:15.685Z,18.52
2018-08-09T02:32:15.677Z,18.58
2018-08-09T02:33:15.677Z,18.62
2018-08-09T02:34:15.645Z,18.57
2018-08-09T02:35:15.646Z,18.72
2018-08-09T02:36:15.614Z,18.72
2018-08-09T02:37:15.618Z,18.76
2018-08-09T02:38:15.598Z,18.84
2018-08-09T02:39:15.585Z,18.87
2018-08-09T02:40:15.589Z,18.95
2018-08-09T02:41:15.553Z,18.95
2018-08-09T02:42:15.557Z,18.99
2018-08-09T02:43:15.538Z,18.99
2018-08-09T02:44:15.513Z,18.98
2018-08-09T02:45:15.502Z,19.07
2018-08-09T02:46:15.492Z,19.02
2018-08-09T02:47:15.474Z,19.04
2018-08-09T02:48:15.498Z,19.06
2018-08-09T02:49:15.450Z,19.08
2018-08-09T02:50:15.435Z,19.04
2018-08-09T02:51:15.431Z,19.07
2018-08-09T02:52:15.423Z,19.10
2018-08-09T02:53:15.416Z,19.13
2018-08-09T02:54:15.408Z,19.07
2018-08-09T02:55:15.373Z,19.07
2018-08-09T02:56:15.360Z,19.11
2018-08-09T02:57:15.353Z,19.07
2018-08-09T02:58:15.341Z,19.08
2018-08-09T02:59:15.340Z,19.08
2018-08-09T03:00:15.331Z,19.08
2018-08-09T03:01:15.295Z,19.13
2018-08-09T03:02:15.289Z,19.13
2018-08-09T03:03:36.283Z,19.07
2018-08-09T03:04:15.264Z,19.07
2018-08-09T03:05:15.267Z,19.07
2018-08-09T03:06:15.252Z,19.07
2018-08-09T03:07:15.222Z,19.13
2018-08-09T03:08:23.304Z,19.13
2018-08-09T03:09:15.210Z,19.07
2018-08-09T03:10:15.219Z,19.07
2018-08-09T03:11:22.705Z,19.10
2018-08-09T03:12:23.375Z,19.10
2018-08-09T03:13:15.177Z,19.08
2018-08-09T03:14:15.139Z,19.13
2018-08-09T03:15:15.119Z,19.14
2018-08-09T03:16:15.121Z,19.14
2018-08-09T03:17:15.167Z,19.08
2018-08-09T03:18:15.100Z,19.18
2018-08-09T03:19:15.082Z,19.08
2018-08-09T03:20:15.068Z,19.21
2018-08-09T03:21:15.049Z,19.22
2018-08-09T03:22:15.033Z,19.25
2018-08-09T03:23:15.038Z,19.19
2018-08-09T03:24:15.024Z,19.22
2018-08-09T03:25:15.000Z,19.23
2018-08-09T03:26:15.001Z,19.29
2018-08-09T03:27:14.983Z,19.28
2018-08-09T03:28:14.958Z,19.28
2018-08-09T03:29:14.947Z,19.26
2018-08-09T03:30:14.937Z,19.29
2018-08-09T03:31:14.916Z,19.32
2018-08-09T03:32:14.926Z,19.40
2018-08-09T03:33:14.900Z,19.31
2018-08-09T03:34:14.902Z,19.37
2018-08-09T03:35:35.882Z,19.37
2018-08-09T03:36:14.859Z,19.33
2018-08-09T03:37:14.852Z,19.41
2018-08-09T03:38:14.843Z,19.37
2018-08-09T03:39:14.836Z,19.47
2018-08-09T03:40:14.804Z,19.43
2018-08-09T03:41:14.794Z,19.41
2018-08-09T03:42:14.782Z,19.54
2018-08-09T03:43:14.768Z,19.43
2018-08-09T03:44:14.755Z,19.43
2018-08-09T03:45:14.766Z,19.51
2018-08-09T03:46:14.732Z,19.54
2018-08-09T03:47:14.723Z,19.55
2018-08-09T03:48:14.709Z,19.54
2018-08-09T03:49:14.694Z,19.54
2018-08-09T03:50:15.318Z,19.62
2018-08-09T03:51:14.669Z,19.56
2018-08-09T03:52:14.672Z,19.56
2018-08-09T03:53:14.645Z,19.54
2018-08-09T03:54:14.632Z,19.58
2018-08-09T03:55:14.621Z,19.59
2018-08-09T03:56:14.626Z,19.61
2018-08-09T03:57:14.604Z,19.56
2018-08-09T03:58:14.644Z,19.63
2018-08-09T03:59:14.570Z,19.69
2018-08-09T04:00:14.562Z,19.69
2018-08-09T04:01:14.581Z,19.63
2018-08-09T04:02:14.543Z,19.71
2018-08-09T04:03:14.520Z,19.76
2018-08-09T04:04:14.512Z,19.76
2018-08-09T04:05:14.502Z,19.76
2018-08-09T04:06:14.506Z,19.73
2018-08-09T04:07:14.468Z,19.76
2018-08-09T04:08:14.461Z,19.77
2018-08-09T04:09:14.445Z,19.80
2018-08-09T04:10:14.440Z,19.78
2018-08-09T04:11:14.463Z,19.77
2018-08-09T04:12:14.409Z,19.80
2018-08-09T04:13:14.414Z,19.80
2018-08-09T04:14:14.391Z,19.76
2018-08-09T04:15:14.373Z,19.77
2018-08-09T04:16:14.375Z,19.69
2018-08-09T04:17:14.370Z,19.74
2018-08-09T04:18:14.344Z,19.73
2018-08-09T04:19:14.324Z,19.56
2018-08-09T04:20:14.316Z,19.59
2018-08-09T04:21:14.300Z,19.62
2018-08-09T04:22:14.312Z,19.50
2018-08-09T04:23:14.274Z,19.50
2018-08-09T04:24:14.261Z,19.47
2018-08-09T04:25:14.264Z,19.51
2018-08-09T04:26:14.253Z,19.54
2018-08-09T04:27:14.244Z,19.41
2018-08-09T04:28:14.233Z,19.44
2018-08-09T04:29:14.201Z,19.54
2018-08-09T04:30:14.200Z,19.50
2018-08-09T04:31:14.174Z,19.59
2018-08-09T04:32:14.161Z,19.62
2018-08-09T04:33:14.161Z,19.50
2018-08-09T04:34:35.146Z,19.54
2018-08-09T04:35:14.142Z,19.55
2018-08-09T04:36:14.114Z,19.61
2018-08-09T04:37:14.099Z,19.66
2018-08-09T04:38:14.090Z,19.62
2018-08-09T04:39:14.073Z,19.68
2018-08-09T04:40:14.075Z,19.65
2018-08-09T04:41:14.066Z,19.71
2018-08-09T04:42:14.039Z,19.71
2018-08-09T04:43:14.027Z,19.76
2018-08-09T04:44:14.016Z,19.73
2018-08-09T04:45:14.020Z,19.77
2018-08-09T04:46:13.997Z,19.78
2018-08-09T04:47:13.982Z,19.84
2018-08-09T04:48:13.961Z,19.87
2018-08-09T04:49:14.001Z,19.91
2018-08-09T04:50:13.952Z,19.87
2018-08-09T04:51:34.940Z,19.88
2018-08-09T04:52:13.919Z,19.87
2018-08-09T04:53:13.921Z,19.92
2018-08-09T04:54:13.916Z,19.99
2018-08-09T04:55:13.878Z,19.95
2018-08-09T04:56:13.862Z,19.96
2018-08-09T04:57:13.857Z,20.03
2018-08-09T04:58:13.904Z,20.01
2018-08-09T04:59:13.827Z,19.96
2018-08-09T05:00:13.814Z,20.01
2018-08-09T05:01:13.801Z,20.10
2018-08-09T05:02:13.790Z,19.98
2018-08-09T05:03:13.779Z,20.03
2018-08-09T05:04:13.784Z,20.14
2018-08-09T05:05:13.781Z,20.17
2018-08-09T05:06:13.746Z,20.16
2018-08-09T05:07:13.751Z,20.18
2018-08-09T05:08:13.723Z,20.14
2018-08-09T05:09:13.746Z,20.10
2018-08-09T05:10:13.699Z,20.14
2018-08-09T05:11:13.683Z,20.20
2018-08-09T05:12:13.678Z,20.17
2018-08-09T05:13:13.663Z,20.13
2018-08-09T05:14:13.651Z,20.28
2018-08-09T05:15:13.651Z,20.31
2018-08-09T05:16:13.622Z,20.33
2018-08-09T05:17:13.638Z,20.28
2018-08-09T05:18:13.604Z,20.35
2018-08-09T05:19:13.590Z,20.33
2018-08-09T05:20:13.573Z,20.35
2018-08-09T05:21:13.565Z,20.41
2018-08-09T05:22:13.568Z,20.36
2018-08-09T05:23:13.638Z,20.38
2018-08-09T05:24:13.528Z,20.51
2018-08-09T05:25:13.542Z,20.43
2018-08-09T05:26:13.502Z,20.52
2018-08-09T05:27:13.488Z,20.52
2018-08-09T05:28:13.488Z,20.57
2018-08-09T05:29:13.488Z,20.61
2018-08-09T05:30:13.459Z,20.62
2018-08-09T05:31:13.446Z,20.69
2018-08-09T05:32:13.433Z,20.67
2018-08-09T05:33:13.416Z,20.67
2018-08-09T05:34:13.448Z,20.70
2018-08-09T05:35:13.393Z,20.82
2018-08-09T05:36:13.385Z,20.84
2018-08-09T05:37:13.369Z,20.82
2018-08-09T05:38:13.358Z,20.91
2018-08-09T05:39:13.362Z,20.84
2018-08-09T05:40:13.335Z,20.85
2018-08-09T05:41:13.324Z,20.87
2018-08-09T05:42:13.316Z,20.87
2018-08-09T05:43:13.302Z,20.80
2018-08-09T05:44:13.302Z,20.85
2018-08-09T05:45:13.348Z,20.89
2018-08-09T05:46:13.299Z,20.84
2018-08-09T05:47:13.249Z,20.91
2018-08-09T05:48:13.245Z,20.89
2018-08-09T05:49:13.228Z,20.88
2018-08-09T05:50:13.219Z,20.94
2018-08-09T05:51:13.221Z,20.97
2018-08-09T05:52:13.195Z,20.95
2018-08-09T05:53:13.197Z,21.12
2018-08-09T05:54:13.170Z,21.13
2018-08-09T05:55:13.158Z,21.37
2018-08-09T05:56:13.163Z,21.43
2018-08-09T05:57:13.136Z,21.46
2018-08-09T05:58:13.126Z,21.58
2018-08-09T05:59:13.113Z,21.59
2018-08-09T06:00:13.111Z,21.58
2018-08-09T06:01:13.097Z,21.75
2018-08-09T06:02:13.087Z,21.68
2018-08-09T06:03:13.067Z,21.68
2018-08-09T06:04:13.050Z,21.69
2018-08-09T06:05:13.045Z,21.77
2018-08-09T06:06:13.040Z,21.72
2018-08-09T06:07:13.035Z,21.75
2018-08-09T06:08:13.027Z,21.74
2018-08-09T06:09:12.999Z,21.72
2018-08-09T06:10:12.987Z,21.80
2018-08-09T06:11:12.969Z,21.74
2018-08-09T06:12:12.981Z,21.79
2018-08-09T06:13:12.953Z,21.77
2018-08-09T06:14:12.943Z,21.91
2018-08-09T06:15:12.927Z,21.90
2018-08-09T06:16:12.921Z,21.90
2018-08-09T06:17:12.928Z,21.92
2018-08-09T06:18:12.895Z,21.90
2018-08-09T06:19:12.885Z,22.03
2018-08-09T06:20:12.869Z,22.02
2018-08-09T06:21:12.861Z,22.02
2018-08-09T06:22:12.858Z,22.03
2018-08-09T06:23:12.878Z,22.14
2018-08-09T06:24:12.834Z,22.12
2018-08-09T06:25:12.818Z,22.14
2018-08-09T06:26:12.840Z,22.24
2018-08-09T06:27:12.806Z,22.24
2018-08-09T06:28:12.785Z,22.27
2018-08-09T06:29:12.850Z,22.21
2018-08-09T06:30:12.762Z,22.30
2018-08-09T06:31:12.747Z,22.30
2018-08-09T06:32:12.739Z,22.27
2018-08-09T06:33:12.727Z,22.28
2018-08-09T06:34:12.741Z,22.27
2018-08-09T06:35:12.702Z,22.31
2018-08-09T06:36:12.696Z,22.27
2018-08-09T06:37:12.679Z,22.28
2018-08-09T06:38:12.671Z,22.24
2018-08-09T06:39:12.659Z,22.27
2018-08-09T06:40:12.663Z,22.22
2018-08-09T06:41:12.642Z,22.25
2018-08-09T06:42:12.629Z,22.20
2018-08-09T06:43:12.618Z,22.15
2018-08-09T06:44:12.604Z,22.09
2018-08-09T06:45:12.613Z,22.06
2018-08-09T06:46:12.598Z,22.17
2018-08-09T06:47:12.576Z,22.15
2018-08-09T06:48:12.560Z,22.17
2018-08-09T06:49:12.553Z,22.07
2018-08-09T06:50:12.547Z,22.15
2018-08-09T06:51:12.546Z,22.27
2018-08-09T06:52:12.518Z,22.35
2018-08-09T06:53:12.501Z,22.37
2018-08-09T06:54:12.499Z,22.52
2018-08-09T06:55:12.482Z,22.64
2018-08-09T06:56:12.541Z,22.67
2018-08-09T06:57:12.489Z,22.73
2018-08-09T06:58:12.448Z,22.85
2018-08-09T06:59:12.441Z,22.82
2018-08-09T07:00:12.432Z,22.95
2018-08-09T07:01:12.447Z,22.98
2018-08-09T07:02:12.403Z,23.01
2018-08-09T07:03:12.395Z,23.01
2018-08-09T07:04:12.384Z,23.02
2018-08-09T07:05:12.374Z,23.05
2018-08-09T07:06:12.365Z,23.05
2018-08-09T07:07:12.367Z,23.09
2018-08-09T07:08:12.342Z,23.13
2018-08-09T07:09:12.333Z,23.15
2018-08-09T07:10:12.321Z,23.15
2018-08-09T07:11:12.310Z,23.22
2018-08-09T07:12:12.315Z,23.17
2018-08-09T07:13:12.302Z,23.25
2018-08-09T07:14:12.280Z,23.31
2018-08-09T07:15:12.279Z,23.36
2018-08-09T07:16:12.272Z,23.46
2018-08-09T07:17:12.247Z,23.40
2018-08-09T07:18:12.254Z,23.55
2018-08-09T07:19:12.228Z,23.70
2018-08-09T07:20:12.220Z,23.80
2018-08-09T07:21:12.206Z,23.94
2018-08-09T07:22:12.196Z,24.06
2018-08-09T07:23:12.187Z,24.15
2018-08-09T07:24:12.187Z,24.20
2018-08-09T07:25:12.165Z,24.34
2018-08-09T07:26:12.153Z,24.37
2018-08-09T07:27:12.143Z,24.30
2018-08-09T07:28:12.144Z,24.35
2018-08-09T07:29:12.124Z,24.27
2018-08-09T07:30:12.112Z,24.34
2018-08-09T07:31:12.103Z,24.24
2018-08-09T07:32:12.095Z,24.28
2018-08-09T07:33:12.105Z,24.24
2018-08-09T07:34:12.072Z,24.24
2018-08-09T07:35:12.063Z,24.20
2018-08-09T07:36:12.054Z,24.24
2018-08-09T07:37:12.037Z,24.27
2018-08-09T07:38:12.032Z,24.28
2018-08-09T07:39:12.034Z,24.31
2018-08-09T07:40:12.012Z,24.37
2018-08-09T07:41:12.000Z,24.43
2018-08-09T07:42:11.995Z,24.30
2018-08-09T07:43:11.980Z,24.49
2018-08-09T07:44:11.970Z,24.46
2018-08-09T07:45:11.970Z,24.50
2018-08-09T07:46:11.950Z,24.46
2018-08-09T07:47:11.942Z,24.50
2018-08-09T07:48:11.927Z,24.60
2018-08-09T07:49:11.937Z,24.76
2018-08-09T07:50:11.910Z,24.93
2018-08-09T07:51:11.899Z,24.93
2018-08-09T07:52:11.890Z,25.05
2018-08-09T07:53:11.880Z,25.13
2018-08-09T07:54:11.903Z,25.14
2018-08-09T07:55:11.880Z,25.25
2018-08-09T07:56:11.849Z,25.33
2018-08-09T07:57:11.843Z,25.45
2018-08-09T07:58:11.830Z,25.50
2018-08-09T07:59:11.834Z,25.52
2018-08-09T08:00:11.815Z,25.61
2018-08-09T08:01:11.816Z,25.60
2018-08-09T08:02:11.792Z,25.65
2018-08-09T08:03:11.780Z,25.64
2018-08-09T08:04:11.774Z,25.67
2018-08-09T08:05:11.761Z,25.72
2018-08-09T08:06:11.776Z,25.70
2018-08-09T08:07:11.744Z,25.76
2018-08-09T08:08:11.732Z,25.82
2018-08-09T08:09:11.718Z,25.85
2018-08-09T08:10:11.716Z,25.75
2018-08-09T08:11:11.737Z,25.79
2018-08-09T08:12:11.692Z,25.77
2018-08-09T08:13:11.683Z,25.85
2018-08-09T08:14:11.670Z,25.88
2018-08-09T08:15:11.662Z,25.98
2018-08-09T08:16:11.652Z,26.06
2018-08-09T08:17:11.677Z,26.06
2018-08-09T08:18:11.636Z,26.18
2018-08-09T08:19:11.622Z,26.35
2018-08-09T08:20:11.613Z,26.40
2018-08-09T08:21:11.603Z,26.48
2018-08-09T08:22:11.600Z,26.44
2018-08-09T08:23:11.598Z,26.45
2018-08-09T08:24:11.574Z,26.51
2018-08-09T08:25:11.569Z,26.58
2018-08-09T08:26:11.550Z,26.52
2018-08-09T08:27:11.559Z,26.60
2018-08-09T08:28:11.528Z,26.72
2018-08-09T08:29:11.524Z,26.66
2018-08-09T08:30:11.520Z,26.67
2018-08-09T08:31:11.503Z,26.75
2018-08-09T08:32:11.520Z,26.73
2018-08-09T08:33:11.487Z,26.70
2018-08-09T08:34:11.479Z,26.58
2018-08-09T08:35:11.466Z,26.50
2018-08-09T08:36:11.459Z,26.45
2018-08-09T08:37:11.450Z,26.36
2018-08-09T08:38:11.458Z,26.29
2018-08-09T08:39:11.449Z,26.28
2018-08-09T08:40:11.415Z,26.18
2018-08-09T08:41:11.409Z,26.07
2018-08-09T08:42:11.409Z,26.10
2018-08-09T08:43:11.389Z,25.97
2018-08-09T08:44:11.397Z,25.99
2018-08-09T08:45:11.374Z,25.97
2018-08-09T08:46:11.364Z,26.02
2018-08-09T08:47:11.357Z,26.02
2018-08-09T08:48:11.351Z,26.09
2018-08-09T08:49:11.351Z,26.01
2018-08-09T08:50:11.328Z,25.94
2018-08-09T08:51:11.332Z,25.91
2018-08-09T08:52:11.308Z,25.75
2018-08-09T08:53:11.344Z,25.70
2018-08-09T08:54:11.304Z,25.67
2018-08-09T08:55:11.319Z,25.65
2018-08-09T08:56:11.270Z,25.69
2018-08-09T08:57:11.258Z,25.72
2018-08-09T08:58:11.251Z,25.72
2018-08-09T08:59:11.255Z,25.80
2018-08-09T09:00:11.227Z,25.83
2018-08-09T09:01:11.252Z,25.73
2018-08-09T09:02:11.211Z,25.70
2018-08-09T09:03:11.208Z,25.80
2018-08-09T09:04:11.198Z,25.80
2018-08-09T09:05:11.311Z,25.90
2018-08-09T09:06:11.176Z,25.87
2018-08-09T09:07:11.234Z,25.83
2018-08-09T09:08:11.153Z,25.91
2018-08-09T09:09:11.141Z,25.91
2018-08-09T09:10:11.153Z,26.02
2018-08-09T09:11:11.143Z,26.06
2018-08-09T09:12:11.121Z,26.67
2018-08-09T09:13:11.109Z,26.92
2018-08-09T09:14:11.102Z,27.06
2018-08-09T09:15:11.086Z,27.27
2018-08-09T09:16:11.102Z,27.14
2018-08-09T09:17:11.086Z,27.18
2018-08-09T09:18:11.083Z,27.54
2018-08-09T09:19:11.052Z,28.06
2018-08-09T09:20:11.043Z,28.43
2018-08-09T09:21:11.055Z,28.56
2018-08-09T09:22:11.028Z,28.22
2018-08-09T09:23:11.017Z,28.03
2018-08-09T09:24:11.010Z,27.82
2018-08-09T09:25:11.005Z,27.39
2018-08-09T09:26:11.009Z,27.21
2018-08-09T09:27:31.990Z,26.99
2018-08-09T09:28:10.976Z,26.73
2018-08-09T09:29:10.969Z,26.63
2018-08-09T09:30:10.958Z,26.54
2018-08-09T09:31:10.949Z,26.37
2018-08-09T09:32:10.960Z,26.25
2018-08-09T09:33:10.928Z,26.26
2018-08-09T09:34:10.925Z,26.02
2018-08-09T09:35:10.914Z,25.94
2018-08-09T09:36:10.904Z,25.79
2018-08-09T09:37:10.896Z,25.73
2018-08-09T09:38:10.899Z,25.73
2018-08-09T09:39:10.877Z,25.76
2018-08-09T09:40:10.868Z,25.69
2018-08-09T09:41:10.861Z,25.61
2018-08-09T09:42:10.853Z,25.32
2018-08-09T09:43:10.841Z,25.25
2018-08-09T09:44:10.847Z,25.03
2018-08-09T09:45:10.823Z,24.77
2018-08-09T09:46:10.814Z,24.64
2018-08-09T09:47:10.805Z,24.53
2018-08-09T09:48:10.792Z,24.21
2018-08-09T09:49:10.806Z,24.20
2018-08-09T09:50:10.775Z,24.46
2018-08-09T09:51:10.767Z,24.91
2018-08-09T09:52:10.758Z,24.91
2018-08-09T09:53:10.747Z,25.03
2018-08-09T09:54:10.736Z,25.23
2018-08-09T09:55:10.742Z,25.65
2018-08-09T09:56:10.729Z,26.48
2018-08-09T09:57:10.712Z,27.34
2018-08-09T09:58:10.719Z,28.03
2018-08-09T09:59:10.696Z,28.85
2018-08-09T10:00:10.683Z,29.27
2018-08-09T10:01:10.678Z,29.49
2018-08-09T10:02:10.669Z,29.89
2018-08-09T10:03:10.674Z,30.39
2018-08-09T10:04:10.667Z,30.45
2018-08-09T10:05:10.649Z,30.53
2018-08-09T10:06:10.640Z,30.98
2018-08-09T10:07:10.699Z,31.19
2018-08-09T10:08:10.649Z,31.21
2018-08-09T10:09:10.646Z,31.21
2018-08-09T10:10:10.613Z,31.38
2018-08-09T10:11:10.610Z,31.32
2018-08-09T10:12:10.610Z,31.70
2018-08-09T10:13:10.600Z,31.88
2018-08-09T10:14:10.595Z,31.78
2018-08-09T10:15:10.606Z,31.76
2018-08-09T10:16:10.585Z,31.76
2018-08-09T10:17:10.579Z,31.73
2018-08-09T10:18:10.582Z,31.68
2018-08-09T10:19:10.577Z,31.88
2018-08-09T10:20:10.592Z,32.07
2018-08-09T10:21:10.579Z,32.13
2018-08-09T10:22:10.567Z,32.15
2018-08-09T10:23:10.563Z,32.41
2018-08-09T10:24:10.578Z,32.45
2018-08-09T10:25:10.560Z,32.66
2018-08-09T10:26:10.569Z,32.89
2018-08-09T10:27:10.548Z,33.07
2018-08-09T10:28:10.554Z,33.49
2018-08-09T10:29:10.566Z,33.57
2018-08-09T10:30:10.570Z,33.39
2018-08-09T10:31:10.545Z,32.74
2018-08-09T10:32:10.558Z,32.25
2018-08-09T10:33:10.547Z,31.85
2018-08-09T10:34:10.546Z,31.58
2018-08-09T10:35:10.538Z,31.96
2018-08-09T10:36:10.539Z,32.47
2018-08-09T10:37:10.550Z,32.82
2018-08-09T10:38:10.554Z,32.78
2018-08-09T10:39:10.535Z,32.29
2018-08-09T10:40:10.532Z,31.70
2018-08-09T10:41:10.538Z,31.06
2018-08-09T10:42:10.542Z,30.73
2018-08-09T10:43:10.545Z,30.53
2018-08-09T10:44:10.528Z,30.38
2018-08-09T10:45:10.525Z,30.22
2018-08-09T10:46:10.534Z,29.94
2018-08-09T10:47:10.519Z,29.68
2018-08-09T10:48:10.513Z,29.48
2018-08-09T10:49:10.529Z,29.37
2018-08-09T10:50:10.517Z,29.43
2018-08-09T10:51:10.504Z,29.43
2018-08-09T10:52:10.505Z,29.71
2018-08-09T10:53:10.500Z,30.34
2018-08-09T10:54:10.502Z,31.14
2018-08-09T10:55:10.512Z,32.03
2018-08-09T10:56:10.500Z,32.44
2018-08-09T10:57:10.503Z,32.18
2018-08-09T10:58:10.484Z,31.84
2018-08-09T10:59:10.477Z,31.57
2018-08-09T11:00:10.478Z,31.34
2018-08-09T11:01:10.477Z,31.26
2018-08-09T11:02:10.485Z,31.06
2018-08-09T11:03:10.466Z,31.02
2018-08-09T11:04:10.462Z,30.73
2018-08-09T11:05:10.459Z,30.62
2018-08-09T11:06:10.456Z,30.75
2018-08-09T11:07:10.453Z,30.54
2018-08-09T11:08:10.465Z,30.57
2018-08-09T11:09:10.446Z,30.54
2018-08-09T11:10:10.441Z,30.58
2018-08-09T11:11:10.437Z,30.53
2018-08-09T11:12:10.443Z,30.45
2018-08-09T11:13:10.430Z,30.60
2018-08-09T11:14:10.428Z,30.46
2018-08-09T11:15:10.431Z,30.42
2018-08-09T11:16:10.413Z,30.43
2018-08-09T11:17:10.429Z,30.27
2018-08-09T11:18:10.405Z,30.20
2018-08-09T11:19:10.405Z,30.37
2018-08-09T11:20:10.400Z,30.26
2018-08-09T11:21:10.400Z,30.51
2018-08-09T11:22:10.412Z,30.83
2018-08-09T11:23:10.414Z,31.41
2018-08-09T11:24:10.388Z,32.19
2018-08-09T11:25:10.390Z,32.47
2018-08-09T11:26:10.374Z,32.74
2018-08-09T11:27:10.373Z,32.78
2018-08-09T11:28:10.369Z,32.97
2018-08-09T11:29:10.384Z,32.97
2018-08-09T11:30:10.378Z,32.77
2018-08-09T11:31:10.354Z,32.40
2018-08-09T11:32:10.351Z,31.91
2018-08-09T11:33:10.350Z,31.56
2018-08-09T11:34:10.363Z,31.38
2018-08-09T11:35:10.341Z,31.31
2018-08-09T11:36:10.337Z,31.10
2018-08-09T11:37:10.334Z,31.14
2018-08-09T11:38:10.336Z,31.07
2018-08-09T11:39:10.328Z,31.06
2018-08-09T11:40:10.338Z,30.95
2018-08-09T11:41:10.331Z,30.67
2018-08-09T11:42:10.314Z,30.46
2018-08-09T11:43:10.313Z,30.45
2018-08-09T11:44:10.307Z,30.34
2018-08-09T11:45:10.302Z,30.39
2018-08-09T11:46:10.310Z,30.29
2018-08-09T11:47:10.294Z,30.32
2018-08-09T11:48:10.286Z,30.24
2018-08-09T11:49:10.300Z,30.19
2018-08-09T11:50:10.280Z,30.05
2018-08-09T11:51:10.275Z,30.00
2018-08-09T11:52:10.289Z,30.02
2018-08-09T11:53:10.265Z,30.00
2018-08-09T11:54:10.255Z,30.11
2018-08-09T11:55:10.255Z,30.11
2018-08-09T11:56:10.319Z,30.22
2018-08-09T11:57:10.277Z,30.26
2018-08-09T11:58:10.253Z,30.05
2018-08-09T11:59:10.225Z,30.01
2018-08-09T12:00:10.227Z,29.78
2018-08-09T12:01:10.246Z,29.74
2018-08-09T12:02:10.210Z,29.76
2018-08-09T12:03:10.217Z,29.80
2018-08-09T12:04:10.200Z,29.71
2018-08-09T12:05:10.201Z,29.70
2018-08-09T12:06:10.192Z,29.78
2018-08-09T12:07:10.234Z,29.79
2018-08-09T12:08:10.186Z,29.74
2018-08-09T12:09:10.167Z,29.71
2018-08-09T12:10:10.163Z,29.76
2018-08-09T12:11:10.154Z,29.83
2018-08-09T12:12:10.146Z,29.85
2018-08-09T12:13:10.153Z,29.87
2018-08-09T12:14:10.134Z,29.87
2018-08-09T12:15:10.145Z,29.95
2018-08-09T12:16:10.124Z,29.98
2018-08-09T12:17:10.112Z,30.04
2018-08-09T12:18:10.122Z,30.08
2018-08-09T12:19:10.099Z,30.01
2018-08-09T12:20:10.096Z,30.00
2018-08-09T12:21:10.087Z,30.01
2018-08-09T12:22:10.084Z,30.00
2018-08-09T12:23:10.089Z,29.98
2018-08-09T12:24:10.064Z,29.94
2018-08-09T12:25:10.055Z,29.95
2018-08-09T12:26:10.070Z,29.87
2018-08-09T12:27:10.046Z,29.76
2018-08-09T12:28:10.039Z,29.73
2018-08-09T12:29:10.030Z,29.76
2018-08-09T12:30:10.026Z,29.65
2018-08-09T12:31:10.026Z,29.65
2018-08-09T12:32:10.010Z,29.61
2018-08-09T12:33:10.013Z,29.63
2018-08-09T12:34:10.015Z,29.53
2018-08-09T12:35:10.015Z,29.46
2018-08-09T12:36:09.984Z,29.53
2018-08-09T12:37:09.991Z,29.58
2018-08-09T12:38:09.968Z,29.52
2018-08-09T12:39:09.961Z,29.53
2018-08-09T12:40:30.959Z,29.51
2018-08-09T12:41:09.943Z,29.61
2018-08-09T12:42:30.962Z,29.82
2018-08-09T12:43:09.930Z,29.65
2018-08-09T12:44:09.923Z,29.70
2018-08-09T12:45:09.947Z,29.61
2018-08-09T12:46:09.906Z,29.57
2018-08-09T12:47:09.901Z,29.51
2018-08-09T12:48:09.889Z,29.48
2018-08-09T12:49:09.904Z,29.39
2018-08-09T12:50:09.883Z,29.24
2018-08-09T12:51:09.870Z,29.21
2018-08-09T12:52:09.860Z,29.28